Warning: Javascript must be enabled to use all the features on this page!


Page Loading - Please Wait...

Click to hideNews Bulletins

Peak Streamflow for the Nation

USGS 02247510 TOMOKA RIVER NEAR HOLLY HILL, FL

Volusia County, Florida
Hydrologic Unit Code 03080201
Latitude  29°13'02", Longitude  81°06'32" NAD27
Drainage area 76.8  square miles
Output formats
Table
Graph
Tab-separated file
peakfq (watstore) format
Reselect output format
Water
Year
Date Gage
Height
(feet)
Stream-
flow
(cfs)
1965 1964-10-16 8.27 272
1966 1966-07-01 11.59 1,500
1967 1967-09-15 9.89 616
1968 1968-08-30 12.13 1,500
1969 1968-10-19 12.92 2,100
1970 1969-10-03 11.83 1,200
1971 1971-02-09 8.85 142
1972 1972-08-27 10.55 590
1973 1972-11-08 10.69 636
1974 1974-09-25 11.63 1,080
1975 1975-07-19 9.50 192
1976 1976-06-05 12.50 1,750
1977 1977-01-04 10.52 568
1978 1978-03-03 9.87 356
1979 1979-03-06 11.60 1,060
1980 1979-11-02 10.29 479
1981 1981-02-19 8.58 124
1982 1982-04-09 10.17 441
1983 1982-10-02 10.18 444
1984 1983-12-21 10.93 854
1985 1985-09-01 11.07 892
1986 1986-01-11 11.17 930
1987 1987-03-31 10.55 678
1988 1988-03-10 9.51 307
1989 1989-01-23 10.44 631
1990 1989-10-11 10.15 518
1991 1991-06-06 11.00 897
1992 1991-10-07 10.17 489
1993 1992-10-03 11.13 914
1994 1994-03-03 8.75 166
1995 1994-11-17 11.96 1,260
1996 1996-03-11 12.09 1,660
1997 1996-10-08 11.11 963
1998 1998-02-23 10.76 700
1999 1998-10-04 9.11 222
2000 2000-03-31 11.12 935
2001 2001-09-14 13.27 2,850
2002 2001-11-14 11.44 1,160
2003 2003-03-28 11.72 1,360
2004 2004-09-06   4,5701,2
2005 2005-06-12 12.41 1,690
2006 2005-10-24 11.45 1,030
2007 2007-09-20 10.54 595
2008 2008-08-22 11.68 1,090
2009 2009-05-21 13.02 1,570
2010 2010-03-12 9.73 306
2011 2011-06-25 8.76 153
2012 2011-10-10 9.18 210
2013 2013-09-28 9.06 192
2014 2014-09-24 12.56 1,580
2015 2014-11-26 11.32 754
2016 2016-02-05 9.90 341
2017 2017-09-11 12.02 1,050
2018 2018-08-13 11.09 671
2019 2018-12-21 9.53 266
2020 2019-10-10 12.29 1,180
2021 2020-11-23 10.41 463
?
  Peak Streamflow Qualification Codes.